Terminal Aerodrome Forecast
Issued by NWS

Current Version | Previous Version | Graphics & Text | Print | Product List | Glossary On
Versions: 1 2 3 4 5 6 7 8 9 10 11 12 13
000
FTUS41 KRNK 100358 AAA
TAFLWB
TAF AMD
KLWB 100358Z 1004/1024 29010G18KT P6SM -SHSN OVC035
     FM100600 29011G21KT P6SM -SHSN OVC028
     FM101300 29011G21KT P6SM BKN035
     FM102200 26008KT P6SM SCT100=

USA.gov is the U.S. government's official web portal to all federal, state and local government web resources and services.